Ashton, Arkansas
Current Conditions -  °F | °C
As of 2:53 PM on Tuesday 27 Jan 2015 (Local Time) from KGLH Reporting Station
Clear Clear  
Wind Chill: 62°   Ceiling: Unl
Heat Index: 62°   Visibility: 10mi
Dew Point: 35°   Wind: 7mph
Humidity: 37%   Direction: 360°N
Pressure: 30.11"   Gusts: NA
Location:  33.3324°N, 91.3183°W
Report Text: KGLH 272053Z AUTO 36006KT 10SM CLR 17/02 A3011 RMK AO2 SLP205 T01670017 55005
Loading
Personal Weather Stations






























Interactive Weather Map New forecast layout! Learn more

10-Day Weather Forecast

Advertisements
Track Severe Weather on mobile